createdAt,value
2017-09-20T00:00:15.884Z,17.18
2017-09-20T00:00:44.051Z,17.24
2017-09-20T00:01:12.133Z,17.15
2017-09-20T00:01:40.197Z,17.09
2017-09-20T00:02:08.407Z,17.15
2017-09-20T00:02:36.520Z,17.21
2017-09-20T00:03:04.611Z,17.24
2017-09-20T00:03:32.783Z,17.12
2017-09-20T00:04:00.972Z,17.24
2017-09-20T00:04:29.052Z,17.27
2017-09-20T00:04:57.144Z,17.2
2017-09-20T00:05:25.221Z,17.25
2017-09-20T00:05:53.403Z,17.24
2017-09-20T00:06:21.403Z,17.32
2017-09-20T00:06:49.614Z,17.35
2017-09-20T00:07:17.716Z,17.3
2017-09-20T00:07:45.894Z,17.31
2017-09-20T00:08:14.059Z,17.31
2017-09-20T00:08:42.166Z,17.28
2017-09-20T00:09:10.364Z,17.35
2017-09-20T00:09:38.368Z,17.3
2017-09-20T00:10:06.339Z,17.35
2017-09-20T00:10:34.405Z,17.28
2017-09-20T00:11:02.477Z,17.28
2017-09-20T00:11:30.586Z,17.28
2017-09-20T00:11:58.751Z,17.31
2017-09-20T00:12:26.970Z,17.32
2017-09-20T00:12:55.141Z,17.28
2017-09-20T00:13:23.324Z,17.38
2017-09-20T00:13:51.535Z,17.36
2017-09-20T00:14:19.566Z,17.32
2017-09-20T00:14:47.747Z,17.36
2017-09-20T00:15:15.838Z,17.28
2017-09-20T00:15:44.113Z,17.35
2017-09-20T00:16:12.202Z,17.36
2017-09-20T00:16:40.418Z,17.3
2017-09-20T00:17:08.591Z,17.35
2017-09-20T00:17:36.676Z,17.35
2017-09-20T00:18:04.876Z,17.22
2017-09-20T00:18:33.096Z,17.22
2017-09-20T00:19:01.265Z,17.24
2017-09-20T00:19:29.479Z,17.31
2017-09-20T00:19:57.583Z,17.22
2017-09-20T00:20:25.681Z,17.24
2017-09-20T00:20:53.876Z,17.24
2017-09-20T00:21:22.080Z,17.28
2017-09-20T00:21:50.151Z,17.3
2017-09-20T00:22:18.333Z,17.2
2017-09-20T00:22:46.423Z,17.18
2017-09-20T00:23:14.525Z,17.13
2017-09-20T00:23:42.636Z,17.12
2017-09-20T00:24:10.730Z,17.13
2017-09-20T00:24:38.896Z,17.1
2017-09-20T00:25:07.045Z,17.05
2017-09-20T00:25:35.129Z,17.07
2017-09-20T00:26:03.400Z,17.03
2017-09-20T00:26:31.491Z,16.99
2017-09-20T00:26:59.623Z,17.03
2017-09-20T00:27:27.705Z,16.94
2017-09-20T00:27:55.903Z,16.94
2017-09-20T00:28:24.074Z,17.02
2017-09-20T00:28:52.186Z,16.9
2017-09-20T00:29:20.399Z,16.99
2017-09-20T00:29:48.584Z,16.94
2017-09-20T00:30:16.649Z,16.95
2017-09-20T00:30:44.715Z,16.99
2017-09-20T00:31:12.932Z,16.94
2017-09-20T00:31:40.907Z,16.9
2017-09-20T00:32:08.978Z,16.9
2017-09-20T00:32:37.185Z,16.88
2017-09-20T00:33:05.309Z,16.9
2017-09-20T00:33:33.528Z,16.9
2017-09-20T00:34:01.613Z,16.92
2017-09-20T00:34:29.840Z,16.9
2017-09-20T00:34:57.830Z,16.9
2017-09-20T00:35:25.886Z,17
2017-09-20T00:35:54.051Z,16.91
2017-09-20T00:36:22.049Z,16.97
2017-09-20T00:36:50.137Z,16.91
2017-09-20T00:37:18.307Z,16.88
2017-09-20T00:37:46.476Z,16.99
2017-09-20T00:38:14.720Z,16.91
2017-09-20T00:38:42.902Z,16.99
2017-09-20T00:39:11.083Z,16.99
2017-09-20T00:39:39.289Z,16.99
2017-09-20T00:40:07.289Z,16.91
2017-09-20T00:40:35.370Z,16.9
2017-09-20T00:41:03.538Z,16.94
2017-09-20T00:41:31.662Z,16.91
2017-09-20T00:41:59.873Z,16.91
2017-09-20T00:42:28.053Z,16.97
2017-09-20T00:42:56.137Z,16.94
2017-09-20T00:43:24.208Z,16.99
2017-09-20T00:43:52.287Z,16.99
2017-09-20T00:44:20.171Z,16.94
2017-09-20T00:44:48.352Z,16.95
2017-09-20T00:45:16.466Z,16.99
2017-09-20T00:45:44.654Z,16.99
2017-09-20T00:46:12.840Z,16.91
2017-09-20T00:46:41.051Z,16.91
2017-09-20T00:47:09.240Z,16.88
2017-09-20T00:47:37.430Z,16.92
2017-09-20T00:48:05.507Z,16.87
2017-09-20T00:48:33.670Z,16.82
2017-09-20T00:49:01.695Z,16.84
2017-09-20T00:49:29.733Z,16.9
2017-09-20T00:49:57.741Z,16.8
2017-09-20T00:50:25.740Z,16.8
2017-09-20T00:50:53.926Z,16.92
2017-09-20T00:51:22.206Z,16.82
2017-09-20T00:51:50.416Z,16.77
2017-09-20T00:52:18.311Z,16.74
2017-09-20T00:52:46.492Z,16.74
2017-09-20T00:53:14.490Z,16.84
2017-09-20T00:53:42.678Z,16.7
2017-09-20T00:54:10.765Z,16.8
2017-09-20T00:54:38.964Z,16.81
2017-09-20T00:55:07.169Z,16.7
2017-09-20T00:55:34.943Z,16.77
2017-09-20T00:56:02.932Z,16.69
2017-09-20T00:56:31.041Z,16.7
2017-09-20T00:56:59.029Z,16.67
2017-09-20T00:57:27.028Z,16.73
2017-09-20T00:57:55.122Z,16.73
2017-09-20T00:58:23.208Z,16.73
2017-09-20T00:58:51.392Z,16.73
2017-09-20T00:59:19.372Z,16.66
2017-09-20T00:59:47.548Z,16.73
2017-09-20T01:00:15.716Z,16.74
2017-09-20T01:00:43.911Z,16.7
2017-09-20T01:01:12.107Z,16.69
2017-09-20T01:01:40.170Z,16.62
2017-09-20T01:02:08.357Z,16.58
2017-09-20T01:02:36.359Z,16.62
2017-09-20T01:03:04.535Z,16.67
2017-09-20T01:03:32.649Z,16.67
2017-09-20T01:04:00.849Z,16.55
2017-09-20T01:04:28.938Z,16.69
2017-09-20T01:04:57.056Z,16.59
2017-09-20T01:05:25.237Z,16.66
2017-09-20T01:05:53.449Z,16.57
2017-09-20T01:06:21.738Z,16.52
2017-09-20T01:06:49.936Z,16.58
2017-09-20T01:07:17.921Z,16.51
2017-09-20T01:07:45.927Z,16.49
2017-09-20T01:08:14.036Z,16.57
2017-09-20T01:08:42.235Z,16.52
2017-09-20T01:09:10.194Z,16.51
2017-09-20T01:09:38.406Z,16.49
2017-09-20T01:10:06.525Z,16.42
2017-09-20T01:10:34.706Z,16.48
2017-09-20T01:11:02.907Z,16.51
2017-09-20T01:11:31.054Z,16.52
2017-09-20T01:11:59.242Z,16.45
2017-09-20T01:12:27.108Z,16.54
2017-09-20T01:12:55.098Z,16.47
2017-09-20T01:13:23.061Z,16.54
2017-09-20T01:13:51.175Z,16.44
2017-09-20T01:14:19.143Z,16.52
2017-09-20T01:14:47.321Z,16.51
2017-09-20T01:15:15.402Z,16.51
2017-09-20T01:15:43.568Z,16.49
2017-09-20T01:16:11.658Z,16.47
2017-09-20T01:16:39.916Z,16.45
2017-09-20T01:17:08.021Z,16.51
2017-09-20T01:17:36.222Z,16.44
2017-09-20T01:18:04.405Z,16.42
2017-09-20T01:18:32.613Z,16.4
2017-09-20T01:19:00.699Z,16.45
2017-09-20T01:19:28.785Z,16.42
2017-09-20T01:19:56.979Z,16.47
2017-09-20T01:20:25.186Z,16.51
2017-09-20T01:20:53.283Z,16.49
2017-09-20T01:21:21.276Z,16.44
2017-09-20T01:21:49.490Z,16.47
2017-09-20T01:22:17.645Z,16.44
2017-09-20T01:22:45.833Z,16.47
2017-09-20T01:23:13.927Z,16.48
2017-09-20T01:23:41.941Z,16.47
2017-09-20T01:24:10.038Z,16.44
2017-09-20T01:24:38.236Z,16.42
2017-09-20T01:25:06.443Z,16.39
2017-09-20T01:25:34.533Z,16.39
2017-09-20T01:26:02.758Z,16.37
2017-09-20T01:26:30.847Z,16.4
2017-09-20T01:26:59.051Z,16.47
2017-09-20T01:27:27.265Z,16.39
2017-09-20T01:27:55.362Z,16.37
2017-09-20T01:28:23.343Z,16.34
2017-09-20T01:28:51.450Z,16.26
2017-09-20T01:29:19.675Z,16.29
2017-09-20T01:29:47.841Z,16.29
2017-09-20T01:30:16.015Z,16.34
2017-09-20T01:30:44.134Z,16.25
2017-09-20T01:31:12.222Z,16.33
2017-09-20T01:31:40.437Z,16.3
2017-09-20T01:32:08.542Z,16.22
2017-09-20T01:32:36.634Z,16.33
2017-09-20T01:33:04.826Z,16.27
2017-09-20T01:33:32.893Z,16.34
2017-09-20T01:34:00.952Z,16.33
2017-09-20T01:34:28.990Z,16.33
2017-09-20T01:34:57.201Z,16.29
2017-09-20T01:35:25.419Z,16.27
2017-09-20T01:35:53.396Z,16.3
2017-09-20T01:36:21.282Z,16.32
2017-09-20T01:36:49.567Z,16.3
2017-09-20T01:37:17.675Z,16.32
2017-09-20T01:37:45.893Z,16.32
2017-09-20T01:38:13.873Z,16.32
2017-09-20T01:38:42.028Z,16.21
2017-09-20T01:39:10.139Z,16.27
2017-09-20T01:39:38.356Z,16.27
2017-09-20T01:40:06.551Z,16.29
2017-09-20T01:40:34.632Z,16.27
2017-09-20T01:41:02.716Z,16.22
2017-09-20T01:41:30.801Z,16.14
2017-09-20T01:41:59.080Z,16.13
2017-09-20T01:42:27.264Z,16.1
2017-09-20T01:42:55.250Z,16.17
2017-09-20T01:43:23.467Z,16.1
2017-09-20T01:43:51.466Z,16.17
2017-09-20T01:44:19.661Z,16.13
2017-09-20T01:44:47.861Z,16.13
2017-09-20T01:45:15.743Z,16.13
2017-09-20T01:45:43.751Z,16.11
2017-09-20T01:46:11.842Z,16.1
2017-09-20T01:46:39.938Z,16.08
2017-09-20T01:47:08.138Z,16.1
2017-09-20T01:47:36.368Z,16.08
2017-09-20T01:48:04.459Z,16.16
2017-09-20T01:48:32.538Z,16.11
2017-09-20T01:49:00.535Z,16.13
2017-09-20T01:49:28.763Z,16.04
2017-09-20T01:49:56.854Z,16.1
2017-09-20T01:50:24.981Z,16.06
2017-09-20T01:50:53.079Z,16.06
2017-09-20T01:51:21.244Z,16.08
2017-09-20T01:51:49.435Z,16.08
2017-09-20T01:52:17.654Z,16.08
2017-09-20T01:52:45.724Z,16.13
2017-09-20T01:53:13.709Z,16.1
2017-09-20T01:53:41.908Z,16.04
2017-09-20T01:54:09.991Z,16.13
2017-09-20T01:54:38.192Z,16.13
2017-09-20T01:55:06.387Z,15.99
2017-09-20T01:55:34.583Z,16.07
2017-09-20T01:56:02.773Z,16
2017-09-20T01:56:30.893Z,16.08
2017-09-20T01:56:59.191Z,16.1
2017-09-20T01:57:27.281Z,16.1
2017-09-20T01:57:55.457Z,16.06
2017-09-20T01:58:23.643Z,16
2017-09-20T01:58:51.731Z,16.07
2017-09-20T01:59:19.901Z,16.07
2017-09-20T01:59:48.101Z,16.02
2017-09-20T02:00:16.218Z,16.07
2017-09-20T02:00:44.275Z,16.04
2017-09-20T02:01:12.323Z,16.1
2017-09-20T02:01:40.446Z,16.08
2017-09-20T02:02:08.533Z,16.04
2017-09-20T02:02:36.627Z,16.06
2017-09-20T02:03:04.652Z,15.98
2017-09-20T02:03:32.644Z,16.07
2017-09-20T02:04:00.736Z,16.13
2017-09-20T02:04:28.910Z,15.99
2017-09-20T02:04:57.098Z,15.96
2017-09-20T02:05:25.151Z,15.96
2017-09-20T02:05:53.341Z,15.93
2017-09-20T02:06:21.447Z,15.84
2017-09-20T02:06:49.500Z,15.83
2017-09-20T02:07:17.731Z,15.89
2017-09-20T02:07:45.640Z,15.86
2017-09-20T02:08:13.638Z,15.8
2017-09-20T02:08:41.766Z,15.89
2017-09-20T02:09:09.846Z,15.89
2017-09-20T02:09:37.935Z,15.78
2017-09-20T02:10:05.936Z,15.89
2017-09-20T02:10:34.041Z,15.8
2017-09-20T02:11:02.138Z,15.89
2017-09-20T02:11:30.281Z,15.88
2017-09-20T02:11:58.489Z,15.88
2017-09-20T02:12:26.602Z,15.88
2017-09-20T02:12:54.715Z,15.84
2017-09-20T02:13:22.931Z,15.84
2017-09-20T02:13:51.029Z,15.84
2017-09-20T02:14:19.005Z,15.91
2017-09-20T02:14:47.076Z,15.88
2017-09-20T02:15:14.953Z,15.8
2017-09-20T02:15:43.170Z,15.91
2017-09-20T02:16:11.266Z,15.81
2017-09-20T02:16:39.359Z,15.8
2017-09-20T02:17:07.559Z,15.75
2017-09-20T02:17:35.637Z,15.7
2017-09-20T02:18:03.634Z,15.81
2017-09-20T02:18:31.864Z,15.77
2017-09-20T02:18:59.884Z,15.74
2017-09-20T02:19:27.799Z,15.71
2017-09-20T02:19:55.849Z,15.65
2017-09-20T02:20:23.941Z,15.65
2017-09-20T02:20:52.135Z,15.65
2017-09-20T02:21:20.313Z,15.73
2017-09-20T02:21:48.460Z,15.75
2017-09-20T02:22:16.579Z,15.73
2017-09-20T02:22:44.679Z,15.77
2017-09-20T02:23:12.851Z,15.71
2017-09-20T02:23:40.814Z,15.74
2017-09-20T02:24:08.880Z,15.8
2017-09-20T02:24:36.991Z,15.8
2017-09-20T02:25:04.985Z,15.8
2017-09-20T02:25:33.168Z,15.88
2017-09-20T02:26:01.240Z,15.77
2017-09-20T02:26:29.256Z,15.73
2017-09-20T02:26:57.219Z,15.71
2017-09-20T02:27:25.218Z,15.75
2017-09-20T02:27:53.193Z,15.78
2017-09-20T02:28:21.270Z,15.73
2017-09-20T02:28:49.236Z,15.78
2017-09-20T02:29:17.112Z,15.74
2017-09-20T02:29:44.889Z,15.86
2017-09-20T02:30:12.749Z,15.92
2017-09-20T02:30:40.852Z,15.71
2017-09-20T02:31:08.835Z,15.8
2017-09-20T02:31:36.951Z,15.83
2017-09-20T02:32:05.028Z,15.81
2017-09-20T02:32:33.342Z,15.8
2017-09-20T02:33:01.420Z,15.86
2017-09-20T02:33:29.530Z,15.8
2017-09-20T02:33:57.607Z,15.89
2017-09-20T02:34:25.576Z,15.89
2017-09-20T02:34:53.671Z,15.86
2017-09-20T02:35:21.761Z,15.88
2017-09-20T02:35:49.757Z,15.86
2017-09-20T02:36:17.941Z,15.84
2017-09-20T02:36:46.028Z,15.86
2017-09-20T02:37:14.116Z,15.88
2017-09-20T02:37:42.408Z,15.92
2017-09-20T02:38:10.405Z,15.96
2017-09-20T02:38:38.596Z,15.93
2017-09-20T02:39:06.798Z,16.04
2017-09-20T02:39:34.914Z,16.02
2017-09-20T02:40:03.079Z,15.93
2017-09-20T02:40:31.153Z,15.96
2017-09-20T02:40:59.341Z,15.95
2017-09-20T02:41:27.533Z,16
2017-09-20T02:41:55.690Z,15.96
2017-09-20T02:42:23.865Z,15.99
2017-09-20T02:42:52.152Z,16.04
2017-09-20T02:43:20.492Z,15.96
2017-09-20T02:43:48.600Z,15.98
2017-09-20T02:44:16.672Z,16
2017-09-20T02:44:44.764Z,15.99
2017-09-20T02:45:12.869Z,15.96
2017-09-20T02:45:41.052Z,16
2017-09-20T02:46:09.331Z,16
2017-09-20T02:46:37.427Z,16.06
2017-09-20T02:47:05.518Z,16.07
2017-09-20T02:47:33.725Z,16
2017-09-20T02:48:01.892Z,15.96
2017-09-20T02:48:30.099Z,15.96
2017-09-20T02:48:58.081Z,16.02
2017-09-20T02:49:26.239Z,15.98
2017-09-20T02:49:54.314Z,16
2017-09-20T02:50:22.298Z,15.98
2017-09-20T02:50:50.496Z,16.02
2017-09-20T02:51:18.669Z,16.04
2017-09-20T02:51:46.724Z,15.96
2017-09-20T02:52:14.900Z,15.93
2017-09-20T02:52:43.142Z,15.95
2017-09-20T02:53:11.338Z,15.96
2017-09-20T02:53:39.541Z,15.98
2017-09-20T02:54:07.648Z,15.98
2017-09-20T02:54:35.759Z,15.98
2017-09-20T02:55:03.937Z,15.98
2017-09-20T02:55:31.940Z,16
2017-09-20T02:56:00.009Z,16.02
2017-09-20T02:56:28.087Z,15.99
2017-09-20T02:56:56.254Z,16
2017-09-20T02:57:24.448Z,16.06
2017-09-20T02:57:52.722Z,16.02
2017-09-20T02:58:20.679Z,16.04
2017-09-20T02:58:48.787Z,16
2017-09-20T02:59:16.877Z,16.04
2017-09-20T02:59:45.077Z,16
2017-09-20T03:00:13.160Z,15.98
2017-09-20T03:00:41.351Z,16
2017-09-20T03:01:09.444Z,15.86
2017-09-20T03:01:37.666Z,15.88
2017-09-20T03:02:05.725Z,15.92
2017-09-20T03:02:33.731Z,15.83
2017-09-20T03:03:01.878Z,15.92
2017-09-20T03:03:29.878Z,15.86
2017-09-20T03:03:58.064Z,15.91
2017-09-20T03:04:26.264Z,15.86
2017-09-20T03:04:54.344Z,15.88
2017-09-20T03:05:22.355Z,15.84
2017-09-20T03:05:50.376Z,15.88
2017-09-20T03:06:18.471Z,15.88
2017-09-20T03:06:46.466Z,15.88
2017-09-20T03:07:14.663Z,15.86
2017-09-20T03:07:42.955Z,15.86
2017-09-20T03:08:11.126Z,15.84
2017-09-20T03:08:39.307Z,15.84
2017-09-20T03:09:07.513Z,15.86
2017-09-20T03:09:35.426Z,15.92
2017-09-20T03:10:03.627Z,15.88
2017-09-20T03:10:31.810Z,15.88
2017-09-20T03:11:00.031Z,15.86
2017-09-20T03:11:28.033Z,15.86
2017-09-20T03:11:56.121Z,15.91
2017-09-20T03:12:24.078Z,15.84
2017-09-20T03:12:52.268Z,15.84
2017-09-20T03:13:20.495Z,15.81
2017-09-20T03:13:48.600Z,15.86
2017-09-20T03:14:16.846Z,15.75
2017-09-20T03:14:45.033Z,15.74
2017-09-20T03:15:13.118Z,15.74
2017-09-20T03:15:41.330Z,15.73
2017-09-20T03:16:09.518Z,15.71
2017-09-20T03:16:37.610Z,15.7
2017-09-20T03:17:05.812Z,15.7
2017-09-20T03:17:33.884Z,15.77
2017-09-20T03:18:02.181Z,15.74
2017-09-20T03:18:30.239Z,15.7
2017-09-20T03:18:58.359Z,15.7
2017-09-20T03:19:26.438Z,15.68
2017-09-20T03:19:54.414Z,15.68
2017-09-20T03:20:22.477Z,15.7
2017-09-20T03:20:50.454Z,15.73
2017-09-20T03:21:18.620Z,15.68
2017-09-20T03:21:46.599Z,15.68
2017-09-20T03:22:14.585Z,15.68
2017-09-20T03:22:42.467Z,15.71
2017-09-20T03:23:10.564Z,15.65
2017-09-20T03:23:38.579Z,15.7
2017-09-20T03:24:06.660Z,15.62
2017-09-20T03:24:34.780Z,15.68
2017-09-20T03:25:02.880Z,15.67
2017-09-20T03:25:30.959Z,15.68
2017-09-20T03:25:58.967Z,15.63
2017-09-20T03:26:27.046Z,15.74
2017-09-20T03:26:55.175Z,15.67
2017-09-20T03:27:23.362Z,15.7
2017-09-20T03:27:51.429Z,15.65
2017-09-20T03:28:19.624Z,15.6
2017-09-20T03:28:47.715Z,15.68
2017-09-20T03:29:15.791Z,15.7
2017-09-20T03:29:43.859Z,15.67
2017-09-20T03:30:11.965Z,15.65
2017-09-20T03:30:40.063Z,15.68
2017-09-20T03:31:08.180Z,15.56
2017-09-20T03:31:36.363Z,15.53
2017-09-20T03:32:04.583Z,15.51
2017-09-20T03:32:32.679Z,15.49
2017-09-20T03:33:00.887Z,15.45
2017-09-20T03:33:29.086Z,15.49
2017-09-20T03:33:57.264Z,15.55
2017-09-20T03:34:25.362Z,15.53
2017-09-20T03:34:53.342Z,15.58
2017-09-20T03:35:21.515Z,15.49
2017-09-20T03:35:49.703Z,15.51
2017-09-20T03:36:17.805Z,15.49
2017-09-20T03:36:45.877Z,15.58
2017-09-20T03:37:13.850Z,15.53
2017-09-20T03:37:41.828Z,15.4
2017-09-20T03:38:10.012Z,15.35
2017-09-20T03:38:38.085Z,15.44
2017-09-20T03:39:06.263Z,15.44
2017-09-20T03:39:34.365Z,15.34
2017-09-20T03:40:02.444Z,15.38
2017-09-20T03:40:30.541Z,15.3
2017-09-20T03:40:58.720Z,15.31
2017-09-20T03:41:26.916Z,15.31
2017-09-20T03:41:55.124Z,15.34
2017-09-20T03:42:23.230Z,15.37
2017-09-20T03:42:51.302Z,15.4
2017-09-20T03:43:19.374Z,15.31
2017-09-20T03:43:47.486Z,15.31
2017-09-20T03:44:15.703Z,15.3
2017-09-20T03:44:43.919Z,15.33
2017-09-20T03:45:12.098Z,15.33
2017-09-20T03:45:40.210Z,15.35
2017-09-20T03:46:08.367Z,15.35
2017-09-20T03:46:36.354Z,15.37
2017-09-20T03:47:04.415Z,15.37
2017-09-20T03:47:32.498Z,15.33
2017-09-20T03:48:00.661Z,15.27
2017-09-20T03:48:28.972Z,15.3
2017-09-20T03:48:57.170Z,15.31
2017-09-20T03:49:25.142Z,15.35
2017-09-20T03:49:53.208Z,15.31
2017-09-20T03:50:21.328Z,15.3
2017-09-20T03:50:49.513Z,15.19
2017-09-20T03:51:17.868Z,15.18
2017-09-20T03:51:45.974Z,15.18
2017-09-20T03:52:13.959Z,15.16
2017-09-20T03:52:42.036Z,15.12
2017-09-20T03:53:09.998Z,15.13
2017-09-20T03:53:38.104Z,15.01
2017-09-20T03:54:06.196Z,15.01
2017-09-20T03:54:34.403Z,15.08
2017-09-20T03:55:02.498Z,15.04
2017-09-20T03:55:30.593Z,15.01
2017-09-20T03:55:58.787Z,14.98
2017-09-20T03:56:26.854Z,14.93
2017-09-20T03:56:54.962Z,14.98
2017-09-20T03:57:23.085Z,14.95
2017-09-20T03:57:51.263Z,14.98
2017-09-20T03:58:19.553Z,15.02
2017-09-20T03:58:47.637Z,15.05
2017-09-20T03:59:15.648Z,15.05
2017-09-20T03:59:43.730Z,15.02
2017-09-20T04:00:11.626Z,15.08
2017-09-20T04:00:39.725Z,15.05
2017-09-20T04:01:07.939Z,15.08
2017-09-20T04:01:36.141Z,15.13
2017-09-20T04:02:04.320Z,15.05
2017-09-20T04:02:32.312Z,15.04
2017-09-20T04:03:00.336Z,15.13
2017-09-20T04:03:28.463Z,15.07
2017-09-20T04:03:56.462Z,15.07
2017-09-20T04:04:24.572Z,15.02
2017-09-20T04:04:52.620Z,15.01
2017-09-20T04:05:20.617Z,14.97
2017-09-20T04:05:48.736Z,15.01
2017-09-20T04:06:16.910Z,15
2017-09-20T04:06:45.061Z,14.86
2017-09-20T04:07:13.130Z,14.93
2017-09-20T04:07:41.330Z,14.94
2017-09-20T04:08:09.519Z,14.9
2017-09-20T04:08:37.694Z,14.97
2017-09-20T04:09:05.683Z,14.95
2017-09-20T04:09:33.750Z,14.93
2017-09-20T04:10:01.883Z,14.86
2017-09-20T04:10:29.995Z,14.89
2017-09-20T04:10:58.084Z,14.9
2017-09-20T04:11:26.156Z,14.89
2017-09-20T04:11:54.155Z,14.85
2017-09-20T04:12:22.336Z,14.75
2017-09-20T04:12:50.306Z,14.75
2017-09-20T04:13:18.283Z,14.75
2017-09-20T04:13:46.477Z,14.69
2017-09-20T04:14:14.685Z,14.74
2017-09-20T04:14:42.668Z,14.63
2017-09-20T04:15:10.864Z,14.64
2017-09-20T04:15:38.985Z,14.66
2017-09-20T04:16:07.112Z,14.63
2017-09-20T04:16:35.203Z,14.63
2017-09-20T04:17:03.304Z,14.69
2017-09-20T04:17:31.420Z,14.67
2017-09-20T04:17:59.613Z,14.66
2017-09-20T04:18:27.723Z,14.74
2017-09-20T04:18:56.009Z,14.61
2017-09-20T04:19:24.172Z,14.75
2017-09-20T04:19:52.260Z,14.85
2017-09-20T04:20:20.398Z,14.85
2017-09-20T04:20:48.421Z,14.8
2017-09-20T04:21:16.612Z,14.8
2017-09-20T04:21:44.574Z,14.86
2017-09-20T04:22:12.755Z,14.8
2017-09-20T04:22:40.834Z,14.85
2017-09-20T04:23:09.017Z,14.9
2017-09-20T04:23:37.269Z,14.86
2017-09-20T04:24:05.320Z,14.87
2017-09-20T04:24:33.293Z,14.86
2017-09-20T04:25:01.288Z,14.83
2017-09-20T04:25:29.450Z,14.74
2017-09-20T04:25:57.549Z,14.79
2017-09-20T04:26:25.635Z,14.79
2017-09-20T04:26:53.814Z,14.66
2017-09-20T04:27:22.047Z,14.67
2017-09-20T04:27:50.100Z,14.7
2017-09-20T04:28:18.298Z,14.63
2017-09-20T04:28:46.485Z,14.64
2017-09-20T04:29:14.541Z,14.79
2017-09-20T04:29:42.729Z,14.71
2017-09-20T04:30:10.704Z,14.74
2017-09-20T04:30:38.661Z,14.75
2017-09-20T04:31:06.552Z,14.77
2017-09-20T04:31:34.536Z,14.75
2017-09-20T04:32:02.495Z,14.83
2017-09-20T04:32:30.685Z,14.83
2017-09-20T04:32:58.840Z,14.89
2017-09-20T04:33:27.037Z,14.86
2017-09-20T04:33:55.226Z,14.87
2017-09-20T04:34:23.091Z,14.79
2017-09-20T04:34:51.276Z,14.8
2017-09-20T04:35:19.242Z,14.82
2017-09-20T04:35:47.318Z,14.85
2017-09-20T04:36:15.360Z,14.8
2017-09-20T04:36:43.344Z,14.86
2017-09-20T04:37:11.531Z,14.83
2017-09-20T04:37:39.586Z,14.8
2017-09-20T04:38:07.579Z,14.85
2017-09-20T04:38:35.732Z,14.83
2017-09-20T04:39:03.884Z,14.8
2017-09-20T04:39:31.945Z,14.79
2017-09-20T04:40:00.014Z,14.77
2017-09-20T04:40:28.100Z,14.8
2017-09-20T04:40:56.153Z,14.9
2017-09-20T04:41:24.201Z,14.93
2017-09-20T04:41:52.389Z,14.95
2017-09-20T04:42:20.258Z,14.95
2017-09-20T04:42:48.227Z,14.97
2017-09-20T04:43:16.440Z,14.93
2017-09-20T04:43:44.512Z,14.9
2017-09-20T04:44:12.773Z,14.86
2017-09-20T04:44:40.939Z,14.9
2017-09-20T04:45:09.026Z,14.8
2017-09-20T04:45:37.128Z,14.89
2017-09-20T04:46:05.340Z,14.8
2017-09-20T04:46:33.423Z,14.82
2017-09-20T04:47:01.486Z,14.83
2017-09-20T04:47:29.671Z,14.71
2017-09-20T04:47:57.838Z,14.7
2017-09-20T04:48:26.000Z,14.75
2017-09-20T04:48:54.265Z,14.82
2017-09-20T04:49:22.338Z,14.75
2017-09-20T04:49:50.556Z,14.75
2017-09-20T04:50:18.717Z,14.82
2017-09-20T04:50:46.919Z,14.7
2017-09-20T04:51:14.880Z,14.8
2017-09-20T04:51:42.954Z,14.75
2017-09-20T04:52:11.007Z,14.77
2017-09-20T04:52:39.186Z,14.75
2017-09-20T04:53:07.041Z,14.79
2017-09-20T04:53:35.236Z,14.77
2017-09-20T04:54:03.311Z,14.7
2017-09-20T04:54:31.387Z,14.75
2017-09-20T04:54:59.458Z,14.75
2017-09-20T04:55:27.619Z,14.74
2017-09-20T04:55:55.711Z,14.79
2017-09-20T04:56:23.697Z,14.71
2017-09-20T04:56:51.769Z,14.64
2017-09-20T04:57:19.752Z,14.63
2017-09-20T04:57:47.723Z,14.64
2017-09-20T04:58:15.773Z,14.64
2017-09-20T04:58:43.840Z,14.59
2017-09-20T04:59:11.916Z,14.69
2017-09-20T04:59:39.972Z,14.6
2017-09-20T05:00:08.048Z,14.59
2017-09-20T05:00:36.235Z,14.61
2017-09-20T05:01:03.941Z,14.61
2017-09-20T05:01:31.885Z,14.67
2017-09-20T05:01:59.958Z,14.63
2017-09-20T05:02:27.894Z,14.66
2017-09-20T05:02:55.851Z,14.63
2017-09-20T05:03:23.816Z,14.64
2017-09-20T05:03:51.686Z,14.64
2017-09-20T05:04:19.886Z,14.69
2017-09-20T05:04:47.660Z,14.67
2017-09-20T05:05:15.736Z,14.64
2017-09-20T05:05:43.920Z,14.69
2017-09-20T05:06:12.073Z,14.75
2017-09-20T05:06:40.157Z,14.79
2017-09-20T05:07:08.227Z,14.75
2017-09-20T05:07:36.180Z,14.71
2017-09-20T05:08:04.244Z,14.71
2017-09-20T05:08:32.408Z,14.77
2017-09-20T05:09:00.401Z,14.94
2017-09-20T05:09:28.591Z,14.89
2017-09-20T05:09:56.754Z,14.95
2017-09-20T05:10:24.811Z,14.94
2017-09-20T05:10:52.882Z,14.97
2017-09-20T05:11:20.846Z,15.02
2017-09-20T05:11:48.883Z,15.01
2017-09-20T05:12:16.950Z,15.12
2017-09-20T05:12:44.917Z,15.08
2017-09-20T05:13:13.085Z,15.07
2017-09-20T05:13:41.014Z,15.1
2017-09-20T05:14:09.178Z,15.07
2017-09-20T05:14:37.360Z,15.16
2017-09-20T05:15:05.437Z,15.16
2017-09-20T05:15:33.521Z,15.16
2017-09-20T05:16:01.732Z,15.25
2017-09-20T05:16:29.892Z,15.23
2017-09-20T05:16:57.981Z,15.27
2017-09-20T05:17:26.027Z,15.26
2017-09-20T05:17:54.245Z,15.31
2017-09-20T05:18:22.308Z,15.25
2017-09-20T05:18:50.468Z,15.31
2017-09-20T05:19:18.714Z,15.43
2017-09-20T05:19:46.877Z,15.35
2017-09-20T05:20:15.070Z,15.38
2017-09-20T05:20:43.140Z,15.34
2017-09-20T05:21:11.204Z,15.43
2017-09-20T05:21:39.295Z,15.45
2017-09-20T05:22:07.352Z,15.51
2017-09-20T05:22:35.503Z,15.6
2017-09-20T05:23:03.566Z,15.53
2017-09-20T05:23:31.534Z,15.53
2017-09-20T05:23:59.717Z,15.51
2017-09-20T05:24:27.881Z,15.47
2017-09-20T05:24:55.933Z,15.52
2017-09-20T05:25:23.990Z,15.56
2017-09-20T05:25:51.951Z,15.55
2017-09-20T05:26:20.005Z,15.56
2017-09-20T05:26:48.103Z,15.55
2017-09-20T05:27:16.275Z,15.63
2017-09-20T05:27:44.351Z,15.58
2017-09-20T05:28:12.412Z,15.55
2017-09-20T05:28:40.468Z,15.58
2017-09-20T05:29:08.653Z,15.53
2017-09-20T05:29:36.718Z,15.58
2017-09-20T05:30:05.031Z,15.63
2017-09-20T05:30:33.082Z,15.62
2017-09-20T05:31:00.942Z,15.63
2017-09-20T05:31:29.017Z,15.67
2017-09-20T05:31:57.131Z,15.73
2017-09-20T05:32:25.308Z,15.8
2017-09-20T05:32:53.483Z,15.7
2017-09-20T05:33:21.634Z,15.73
2017-09-20T05:33:49.704Z,15.74
2017-09-20T05:34:17.783Z,15.78
2017-09-20T05:34:45.930Z,15.7
2017-09-20T05:35:13.904Z,15.74
2017-09-20T05:35:41.960Z,15.73
2017-09-20T05:36:10.138Z,15.81
2017-09-20T05:36:38.115Z,15.65
2017-09-20T05:37:06.121Z,15.73
2017-09-20T05:37:34.329Z,15.7
2017-09-20T05:38:02.300Z,15.67
2017-09-20T05:38:30.379Z,15.65
2017-09-20T05:38:58.441Z,15.73
2017-09-20T05:39:26.641Z,15.63
2017-09-20T05:39:54.638Z,15.62
2017-09-20T05:40:22.631Z,15.63
2017-09-20T05:40:50.634Z,15.65
2017-09-20T05:41:18.803Z,15.51
2017-09-20T05:41:46.860Z,15.58
2017-09-20T05:42:14.908Z,15.55
2017-09-20T05:42:43.085Z,15.51
2017-09-20T05:43:11.244Z,15.53
2017-09-20T05:43:39.444Z,15.53
2017-09-20T05:44:07.505Z,15.62
2017-09-20T05:44:35.766Z,15.52
2017-09-20T05:45:03.844Z,15.59
2017-09-20T05:45:31.917Z,15.62
2017-09-20T05:46:00.085Z,15.59
2017-09-20T05:46:28.364Z,15.56
2017-09-20T05:46:56.228Z,15.45
2017-09-20T05:47:24.311Z,15.45
2017-09-20T05:47:52.311Z,15.44
2017-09-20T05:48:20.567Z,15.51
2017-09-20T05:48:48.578Z,15.43
2017-09-20T05:49:16.768Z,15.49
2017-09-20T05:49:45.042Z,15.49
2017-09-20T05:50:13.195Z,15.55
2017-09-20T05:50:41.489Z,15.52
2017-09-20T05:51:09.542Z,15.62
2017-09-20T05:51:37.624Z,15.49
2017-09-20T05:52:05.693Z,15.56
2017-09-20T05:52:33.875Z,15.55
2017-09-20T05:53:02.038Z,15.62
2017-09-20T05:53:30.406Z,15.59
2017-09-20T05:53:58.568Z,15.68
2017-09-20T05:54:26.738Z,15.63
2017-09-20T05:54:55.055Z,15.58
2017-09-20T05:55:23.237Z,15.62
2017-09-20T05:55:51.103Z,15.63
2017-09-20T05:56:19.165Z,15.67
2017-09-20T05:56:47.344Z,15.58
2017-09-20T05:57:15.450Z,15.63
2017-09-20T05:57:43.578Z,15.6
2017-09-20T05:58:11.661Z,15.63
2017-09-20T05:58:39.863Z,15.62
2017-09-20T05:59:07.834Z,15.67
2017-09-20T05:59:36.003Z,15.56
2017-09-20T06:00:04.244Z,15.51
2017-09-20T06:00:32.322Z,15.52
2017-09-20T06:01:00.484Z,15.53
2017-09-20T06:01:28.570Z,15.52
2017-09-20T06:01:56.630Z,15.56
2017-09-20T06:02:24.792Z,15.59
2017-09-20T06:02:52.961Z,15.58
2017-09-20T06:03:21.037Z,15.65
2017-09-20T06:03:49.219Z,15.58
2017-09-20T06:04:17.280Z,15.62